Main page
METAR-TAF:

METAR-TAF

Airports :

Casement Aerodrome

Dublin, Ireland

latitude: 53-18-06N, longitude: 6-27-04W, elevation: 97 m

Current weather observation

The report was made 16 minutes ago, at 22:00 UTC
Wind 6 kt from the East/Northeast, varying between North and East/Southeast
Temperature 8°C
Humidity 100%
Pressure 1001 hPa
Visibility: 4900 m
mist

METAR: EIME 272200Z 06006KT 010V120 4900 BR 08/08 Q1001

Time: 22:16 (22:16 UTC)

Forecast

The report was made 26 hours and 16 minutes ago, at 20:00 UTC
Forecast valid from 26 at 21 UTC to 27 at 06 UTC
Wind 12 kt from the West/Southwest
Visibility 10 km or more
Few clouds at a height of 1000 ft
Broken clouds at a height of 1600 ft
Temporary
from 26 at 21 UTC to 27 at 06 UTC
Visibility: 4000 m
Broken clouds at a height of 700 ft
light rain, drizzle, mist
Becoming
from 27 at 03 UTC to 27 at 05 UTC
Wind 5 kt from the South

TAF: EIME 262000Z 2621/2706 24012KT 9999 FEW010 BKN016 TEMPO 2621/2706 4000 -RADZ BR BKN007 BECMG 2703/2705 19005KT

Weather observations and forecasts of more than 4000 airports (METAR and TAF reports).

The available stations are represented by yellow and red dots on the map.

Hover mouse over dot to see the name of the station.

Then click to see weather observations and forecasts.

To change the map : click on the green buttons with a black cross to zoom in, on the green button with a dash to zoom out, or on the green arrows for adjacent maps.


METAR-TAF: